Time;durP1;ratioP1;P1;durP2;ratioP2;P2;SDS_P1;SDS_P2;PMS_P1;PMS_P2;Temp;Humidity;BMP_temperature;BMP_pressure;BME280_temperature;BME280_humidity;BME280_pressure;Samples;Min_cycle;Max_cycle;Signal;HPM_P1;HPM_P2
2023/04/04 00:00:17;;;;;;;3.20;1.75;;;;;;;2.10;56.61;99293.78;3209198;23;20032;-80
2023/04/04 00:01:52;;;;;;;3.30;1.80;;;;;;;2.10;57.18;99301.53;3209064;23;20021;-80
2023/04/04 00:03:08;;;;;;;4.97;1.67;;;;;;;1.97;55.98;99290.06;3209087;23;20028;-80
2023/04/04 00:04:23;;;;;;;3.17;1.75;;;;;;;1.94;56.72;99290.00;3209052;23;20071;-80
2023/04/04 00:05:39;;;;;;;6.07;2.05;;;;;;;1.93;56.86;99300.28;3208851;23;20031;-80
2023/04/04 00:06:54;;;;;;;4.18;1.92;;;;;;;1.76;56.88;99297.38;3209025;23;20024;-80
2023/04/04 00:08:10;;;;;;;3.95;1.90;;;;;;;1.59;57.71;99292.69;3192787;23;20531;-80
2023/04/04 00:09:26;;;;;;;3.45;1.90;;;;;;;1.65;57.58;99297.13;3198894;23;20033;-80
2023/04/04 00:10:41;;;;;;;6.50;1.60;;;;;;;1.85;57.59;99294.09;3208793;23;20356;-80
2023/04/04 00:11:57;;;;;;;3.90;1.70;;;;;;;1.64;58.11;99292.78;3208943;23;20025;-80
2023/04/04 00:13:13;;;;;;;3.90;1.77;;;;;;;1.82;57.30;99295.78;3209157;23;20096;-80
2023/04/04 00:14:29;;;;;;;3.63;1.98;;;;;;;1.88;57.43;99289.00;3208890;23;20047;-80
2023/04/04 00:15:44;;;;;;;4.03;1.60;;;;;;;1.94;57.67;99289.13;3208695;23;20163;-80
2023/04/04 00:17:00;;;;;;;6.75;2.20;;;;;;;1.44;59.22;99295.81;3209239;23;20460;-80
2023/04/04 00:18:16;;;;;;;5.53;2.20;;;;;;;1.68;58.13;99287.72;3209021;23;20031;-80
2023/04/04 00:19:32;;;;;;;2.78;1.60;;;;;;;1.71;58.22;99289.53;3208985;23;20472;-80
2023/04/04 00:20:47;;;;;;;4.47;2.10;;;;;;;1.77;57.74;99283.63;3208597;23;20021;-80
2023/04/04 00:22:03;;;;;;;3.03;1.77;;;;;;;1.89;57.52;99277.81;3208142;23;20027;-80
2023/04/04 00:23:19;;;;;;;6.00;2.05;;;;;;;1.91;57.70;99277.03;3208318;23;20214;-80
2023/04/04 00:24:34;;;;;;;4.03;1.70;;;;;;;1.81;57.83;99280.25;3208727;23;20491;-80
2023/04/04 00:25:51;;;;;;;4.47;2.25;;;;;;;1.78;59.37;99280.19;3208783;23;20025;-80
2023/04/04 00:27:06;;;;;;;3.80;1.98;;;;;;;1.98;57.63;99273.72;3209716;23;20020;-80
2023/04/04 00:28:22;;;;;;;3.60;1.40;;;;;;;1.83;57.36;99268.25;3209119;23;20100;-80
2023/04/04 00:29:38;;;;;;;2.65;1.80;;;;;;;1.59;58.24;99269.47;3209137;23;20021;-80
2023/04/04 00:30:53;;;;;;;3.60;1.50;;;;;;;1.92;58.04;99270.13;3209959;23;20021;-80
2023/04/04 00:32:09;;;;;;;2.80;1.58;;;;;;;1.92;58.08;99265.84;3209194;23;20020;-80
2023/04/04 00:33:24;;;;;;;2.88;1.55;;;;;;;1.74;59.01;99270.63;3209109;23;20023;-80
2023/04/04 00:34:40;;;;;;;1.58;1.20;;;;;;;1.58;59.31;99269.44;3192492;23;20064;-79
2023/04/04 00:35:56;;;;;;;3.97;1.80;;;;;;;1.88;58.94;99266.63;3198899;23;20024;-80
2023/04/04 00:37:11;;;;;;;3.85;1.65;;;;;;;1.87;59.07;99261.44;3208060;23;20479;-80
2023/04/04 00:38:28;;;;;;;5.22;1.90;;;;;;;1.86;58.66;99264.88;3208476;23;20032;-80
2023/04/04 00:39:44;;;;;;;2.38;1.60;;;;;;;1.66;59.16;99267.88;3208881;23;20052;-80
2023/04/04 00:41:00;;;;;;;4.75;1.77;;;;;;;1.91;59.39;99261.53;3208886;23;20773;-80
2023/04/04 00:42:15;;;;;;;4.72;1.75;;;;;;;1.83;59.63;99260.50;3208954;23;20466;-80
2023/04/04 00:43:31;;;;;;;2.58;1.70;;;;;;;1.94;59.75;99260.72;3209036;23;20166;-79
2023/04/04 00:44:47;;;;;;;2.35;1.58;;;;;;;1.79;60.17;99254.38;3208913;23;20538;-80
2023/04/04 00:46:03;;;;;;;4.65;2.05;;;;;;;1.61;60.22;99254.91;3209112;23;20083;-80
2023/04/04 00:47:23;;;;;;;4.28;2.17;;;;;;;1.63;60.82;99257.50;3209060;23;20104;-80
2023/04/04 00:48:40;;;;;;;3.92;1.70;;;;;;;1.37;61.55;99252.63;3209980;23;20024;-79
2023/04/04 00:49:56;;;;;;;3.83;1.98;;;;;;;1.35;61.24;99251.72;3208863;23;20031;-80
2023/04/04 00:51:11;;;;;;;4.07;1.70;;;;;;;1.45;61.76;99251.09;3192295;23;20365;-80
2023/04/04 00:52:27;;;;;;;2.30;1.55;;;;;;;1.38;61.37;99252.69;3199104;23;20457;-80
2023/04/04 00:53:45;;;;;;;3.63;1.52;;;;;;;1.47;61.93;99249.44;3209070;23;20373;-79
2023/04/04 00:55:01;;;;;;;5.95;2.00;;;;;;;1.47;62.15;99251.16;3208615;23;20124;-80
2023/04/04 00:56:17;;;;;;;4.22;1.77;;;;;;;1.39;62.33;99258.69;3209006;23;20129;-80
2023/04/04 00:57:33;;;;;;;5.25;1.80;;;;;;;1.45;62.10;99255.38;3209866;23;20055;-80
2023/04/04 00:58:49;;;;;;;4.95;2.10;;;;;;;1.22;63.75;99246.28;3210028;23;20406;-80
2023/04/04 01:00:05;;;;;;;3.65;1.77;;;;;;;1.24;62.97;99251.50;3210175;23;20184;-80
2023/04/04 01:01:21;;;;;;;4.00;1.77;;;;;;;1.24;62.88;99246.34;3209747;23;20040;-80
2023/04/04 01:02:37;;;;;;;3.40;1.70;;;;;;;1.16;63.32;99247.88;3209747;23;20157;-80
2023/04/04 01:03:52;;;;;;;2.65;1.60;;;;;;;1.15;63.68;99247.00;3210431;23;20031;-80
2023/04/04 01:05:08;;;;;;;6.75;1.98;;;;;;;1.02;64.28;99247.56;3193964;23;21075;-80
2023/04/04 01:06:25;;;;;;;2.85;1.73;;;;;;;1.01;65.15;99248.41;3199989;23;20021;-80
2023/04/04 01:07:41;;;;;;;3.28;1.95;;;;;;;0.95;65.48;99247.38;3209884;23;20026;-80
2023/04/04 01:08:57;;;;;;;2.95;1.60;;;;;;;0.74;66.23;99244.31;3209796;23;20052;-79
2023/04/04 01:10:13;;;;;;;2.28;1.48;;;;;;;0.68;66.96;99245.03;3209547;23;20098;-80
2023/04/04 01:11:28;;;;;;;4.15;2.00;;;;;;;0.80;67.35;99247.03;3209825;23;20724;-80
2023/04/04 01:12:44;;;;;;;3.97;2.20;;;;;;;0.47;68.88;99247.94;3193311;23;20032;-80
2023/04/04 01:14:00;;;;;;;4.75;2.22;;;;;;;0.51;69.04;99237.75;3199684;23;20030;-80
2023/04/04 01:15:15;;;;;;;5.00;2.13;;;;;;;0.59;69.40;99244.78;3209771;23;20021;-80
2023/04/04 01:16:31;;;;;;;4.70;2.22;;;;;;;0.54;70.46;99235.25;3209777;23;20118;-80
2023/04/04 01:17:48;;;;;;;5.13;2.00;;;;;;;0.54;69.83;99240.41;3209864;23;20020;-80
2023/04/04 01:19:08;;;;;;;4.70;1.63;;;;;;;0.26;72.49;99241.38;3209592;23;20052;-80
2023/04/04 01:20:29;;;;;;;4.22;1.67;;;;;;;0.41;71.52;99233.19;3209968;23;20017;-80
2023/04/04 01:21:46;;;;;;;5.13;1.73;;;;;;;0.54;70.98;99239.50;3209806;23;20139;-79
2023/04/04 01:23:03;;;;;;;5.70;1.85;;;;;;;0.46;70.06;99238.47;3209735;23;20127;-80
2023/04/04 01:24:20;;;;;;;2.97;1.73;;;;;;;0.59;69.27;99240.53;3209822;23;20032;-80
2023/04/04 01:25:36;;;;;;;6.13;1.90;;;;;;;0.58;68.83;99235.31;3209705;23;20520;-79
2023/04/04 01:26:51;;;;;;;4.45;1.80;;;;;;;0.55;69.78;99233.53;3209798;23;20024;-80
2023/04/04 01:28:07;;;;;;;5.18;2.10;;;;;;;0.62;69.40;99235.44;3209894;23;20021;-80
2023/04/04 01:29:22;;;;;;;6.82;1.95;;;;;;;0.60;69.58;99239.69;3209727;23;20071;-80
2023/04/04 01:30:40;;;;;;;4.25;1.85;;;;;;;0.63;68.89;99242.34;3209635;23;20044;-80
2023/04/04 01:32:03;;;;;;;4.22;1.95;;;;;;;0.58;69.13;99243.06;3210231;23;20058;-80
2023/04/04 01:33:21;;;;;;;;;;;;;;;0.58;68.96;99236.19;3210487;23;20024;-80
2023/04/04 01:34:40;;;;;;;5.05;1.70;;;;;;;0.46;69.76;99235.88;3209856;23;20011;-79
2023/04/04 01:36:09;;;;;;;6.85;1.88;;;;;;;0.49;69.82;99236.84;3210559;23;20021;-80
2023/04/04 01:38:13;;;;;;;3.10;1.63;;;;;;;0.54;69.42;99231.78;3209796;23;20725;-80
2023/04/04 01:39:48;;;;;;;5.55;1.73;;;;;;;0.38;71.15;99236.53;3206639;23;20421;-79
2023/04/04 01:41:07;;;;;;;4.15;1.55;;;;;;;0.16;72.62;99231.69;3209688;23;20356;-79
2023/04/04 01:42:23;;;;;;;3.10;1.50;;;;;;;0.20;74.32;99234.34;3209787;23;20024;-80
2023/04/04 01:43:39;;;;;;;3.03;1.80;;;;;;;0.24;74.57;99237.88;3209857;23;20479;-79
2023/04/04 01:44:55;;;;;;;5.30;1.90;;;;;;;0.28;74.05;99232.00;3209499;23;20021;-80
2023/04/04 01:46:11;;;;;;;2.10;1.50;;;;;;;0.19;74.60;99231.75;3210442;23;20020;-79
2023/04/04 01:47:28;;;;;;;3.13;1.60;;;;;;;0.19;75.61;99229.19;3209907;23;20044;-80
2023/04/04 01:48:46;;;;;;;3.85;1.80;;;;;;;0.32;75.47;99233.81;3209683;23;20028;-79
2023/04/04 01:50:02;;;;;;;4.05;2.05;;;;;;;0.19;77.18;99226.59;3209657;23;20027;-79
2023/04/04 01:51:18;;;;;;;3.13;1.88;;;;;;;0.25;78.58;99226.75;3209951;23;20027;-79
2023/04/04 01:52:34;;;;;;;4.50;2.20;;;;;;;0.01;79.24;99224.41;3209651;23;20499;-79
2023/04/04 01:53:50;;;;;;;6.28;1.90;;;;;;;0.12;79.20;99223.00;3209685;23;20042;-79
2023/04/04 01:55:07;;;;;;;5.05;1.95;;;;;;;0.06;78.42;99231.44;3209727;23;20520;-80
2023/04/04 01:56:23;;;;;;;5.20;1.88;;;;;;;0.11;79.25;99223.84;3209712;23;20024;-79
2023/04/04 01:57:39;;;;;;;7.43;2.05;;;;;;;0.24;78.68;99225.00;3209530;23;20490;-80
2023/04/04 01:58:55;;;;;;;2.63;1.88;;;;;;;0.25;79.29;99219.91;3210121;23;20025;-79
2023/04/04 02:00:11;;;;;;;5.05;2.20;;;;;;;0.40;78.71;99221.16;3209690;23;20025;-79
2023/04/04 02:01:26;;;;;;;2.97;1.88;;;;;;;0.33;79.48;99224.38;3209564;23;20025;-79
2023/04/04 02:02:42;;;;;;;3.85;2.10;;;;;;;0.59;77.76;99225.06;3209774;23;20025;-80
2023/04/04 02:03:57;;;;;;;4.82;2.17;;;;;;;0.67;77.39;99217.50;3210514;23;20025;-81
2023/04/04 02:05:13;;;;;;;3.47;1.73;;;;;;;0.70;76.76;99218.47;3209639;23;20043;-79
2023/04/04 02:06:29;;;;;;;3.20;1.77;;;;;;;0.74;76.49;99219.38;3209803;23;20027;-79
2023/04/04 02:07:51;;;;;;;3.83;1.90;;;;;;;0.67;76.88;99225.25;3209597;23;20024;-79
2023/04/04 02:09:06;;;;;;;3.85;1.85;;;;;;;0.91;75.71;99224.06;3209474;23;20334;-79
2023/04/04 02:10:22;;;;;;;4.90;2.15;;;;;;;1.00;74.83;99220.88;3209574;23;20028;-79
2023/04/04 02:11:37;;;;;;;3.70;1.73;;;;;;;0.87;75.68;99219.69;3209449;23;20024;-79
2023/04/04 02:12:53;;;;;;;7.53;2.15;;;;;;;1.03;74.11;99215.78;3209539;23;20356;-79
2023/04/04 02:14:08;;;;;;;2.92;2.10;;;;;;;1.26;73.48;99213.72;3209585;23;20016;-79
2023/04/04 02:15:25;;;;;;;4.50;1.98;;;;;;;1.06;74.05;99215.84;3209515;23;20140;-80
2023/04/04 02:16:40;;;;;;;4.82;1.90;;;;;;;1.10;74.27;99215.94;3209348;23;20028;-79
2023/04/04 02:17:56;;;;;;;3.67;1.80;;;;;;;1.35;73.60;99218.19;3209675;23;20468;-79
2023/04/04 02:19:11;;;;;;;6.43;2.10;;;;;;;1.27;73.82;99213.75;3209360;23;20025;-80
2023/04/04 02:20:27;;;;;;;5.90;2.28;;;;;;;1.16;74.05;99215.22;3209568;23;20025;-80
2023/04/04 02:21:43;;;;;;;5.07;2.78;;;;;;;1.38;73.15;99215.66;3210262;23;20392;-80
2023/04/04 02:22:58;;;;;;;5.13;2.42;;;;;;;1.41;72.83;99202.88;3193122;23;20052;-80
2023/04/04 02:24:14;;;;;;;4.32;2.00;;;;;;;1.51;71.79;99214.25;3199444;23;20526;-80
2023/04/04 02:25:30;;;;;;;5.78;1.98;;;;;;;1.40;72.64;99211.44;3209708;23;20017;-80
2023/04/04 02:26:45;;;;;;;5.90;2.13;;;;;;;1.35;73.14;99210.44;3209458;23;20021;-79
2023/04/04 02:28:01;;;;;;;5.25;2.17;;;;;;;1.43;72.58;99214.09;3209580;23;20023;-80
2023/04/04 02:29:16;;;;;;;6.30;2.53;;;;;;;1.50;72.58;99215.94;3209746;23;20079;-80
2023/04/04 02:30:32;;;;;;;4.15;1.95;;;;;;;1.61;71.34;99212.72;3209172;23;20025;-79
2023/04/04 02:31:48;;;;;;;5.45;2.00;;;;;;;1.40;72.93;99214.88;3209641;23;20047;-80
2023/04/04 02:33:03;;;;;;;5.10;2.00;;;;;;;1.52;72.42;99214.25;3208766;23;20029;-80
2023/04/04 02:34:18;;;;;;;5.53;2.00;;;;;;;1.52;71.42;99211.69;3209186;23;20021;-79
2023/04/04 02:35:34;;;;;;;4.10;2.33;;;;;;;1.51;73.25;99209.94;3209281;23;20103;-79
2023/04/04 02:36:50;;;;;;;5.07;1.88;;;;;;;1.54;71.96;99207.44;3209335;23;20067;-79
2023/04/04 02:38:06;;;;;;;5.63;2.30;;;;;;;1.58;71.37;99213.50;3209611;23;20032;-80
2023/04/04 02:39:22;;;;;;;5.47;2.08;;;;;;;1.45;72.87;99201.19;3209492;23;20036;-79
2023/04/04 02:40:40;;;;;;;4.25;2.22;;;;;;;1.47;72.69;99202.97;3209412;23;20024;-80
2023/04/04 02:41:55;;;;;;;3.63;2.17;;;;;;;1.61;72.44;99199.81;3209467;23;20021;-80
2023/04/04 02:43:11;;;;;;;5.70;2.20;;;;;;;1.44;72.79;99200.34;3209395;23;20040;-80
2023/04/04 02:44:27;;;;;;;4.32;1.90;;;;;;;1.47;72.41;99202.97;3209442;23;20424;-79
2023/04/04 02:45:42;;;;;;;7.93;2.30;;;;;;;1.48;72.69;99202.13;3209753;23;20024;-79
2023/04/04 02:46:58;;;;;;;4.72;2.30;;;;;;;1.54;71.60;99201.41;3209363;23;20582;-79
2023/04/04 02:48:14;;;;;;;5.18;2.28;;;;;;;1.68;71.02;99204.28;3209659;23;20538;-79
2023/04/04 02:49:30;;;;;;;5.65;2.40;;;;;;;1.75;70.75;99206.13;3209460;23;20070;-79
2023/04/04 02:50:46;;;;;;;5.53;2.42;;;;;;;1.69;69.31;99206.88;3209055;23;20103;-79
2023/04/04 02:52:02;;;;;;;4.88;2.58;;;;;;;1.58;71.07;99202.34;3209348;23;20070;-80
2023/04/04 02:53:17;;;;;;;6.20;2.53;;;;;;;1.67;69.98;99199.91;3209439;23;20083;-79
2023/04/04 02:54:33;;;;;;;3.47;2.28;;;;;;;1.65;71.64;99204.19;3209198;23;20021;-80
2023/04/04 02:55:49;;;;;;;5.32;2.33;;;;;;;1.59;70.97;99204.94;3209374;23;20087;-80
2023/04/04 02:57:04;;;;;;;3.95;2.15;;;;;;;1.61;70.49;99202.41;3208849;23;20024;-80
2023/04/04 02:58:20;;;;;;;4.20;2.20;;;;;;;1.65;71.46;99204.19;3209320;23;20483;-79
2023/04/04 02:59:35;;;;;;;4.50;2.33;;;;;;;1.76;70.49;99204.44;3209327;23;20040;-79
2023/04/04 03:00:54;;;;;;;4.25;2.10;;;;;;;1.63;71.25;99203.28;3209201;23;20024;-79
2023/04/04 03:02:10;;;;;;;4.70;2.50;;;;;;;1.41;74.14;99203.72;3209243;23;20047;-80
2023/04/04 03:03:26;;;;;;;7.50;2.78;;;;;;;1.58;72.59;99197.19;3209293;23;20180;-80
2023/04/04 03:04:41;;;;;;;4.40;2.40;;;;;;;1.51;72.44;99201.34;3209206;23;20036;-79
2023/04/04 03:05:58;;;;;;;5.78;2.42;;;;;;;1.69;70.91;99203.44;3208305;23;20021;-80
2023/04/04 03:07:13;;;;;;;3.78;2.05;;;;;;;1.47;72.60;99205.56;3208949;23;20360;-79
2023/04/04 03:08:29;;;;;;;4.20;2.15;;;;;;;1.60;71.76;99200.66;3209355;23;20016;-79
2023/04/04 03:09:45;;;;;;;4.47;2.33;;;;;;;1.69;71.65;99206.00;3210193;23;20017;-80
2023/04/04 03:11:01;;;;;;;4.15;2.38;;;;;;;1.66;72.22;99203.34;3209185;23;20017;-79
2023/04/04 03:12:20;;;;;;;5.85;2.50;;;;;;;1.58;73.31;99203.19;3209259;23;20107;-79
2023/04/04 03:13:35;;;;;;;5.47;2.35;;;;;;;1.57;73.83;99211.78;3209132;23;20052;-80
2023/04/04 03:14:51;;;;;;;7.25;2.60;;;;;;;1.55;73.27;99209.19;3209104;23;20402;-79
2023/04/04 03:16:07;;;;;;;4.95;2.42;;;;;;;1.33;76.96;99205.28;3209347;23;20024;-79
2023/04/04 03:17:23;;;;;;;5.88;2.50;;;;;;;1.34;77.60;99206.13;3192643;23;20063;-79
2023/04/04 03:18:38;;;;;;;4.05;2.20;;;;;;;1.17;79.62;99203.16;3199350;23;20017;-80
2023/04/04 03:19:53;;;;;;;6.50;2.63;;;;;;;1.33;77.12;99209.56;3209180;23;20075;-79
2023/04/04 03:21:09;;;;;;;9.02;3.17;;;;;;;1.38;76.32;99210.50;3209256;23;20095;-79
2023/04/04 03:22:25;;;;;;;7.40;3.40;;;;;;;1.52;74.70;99209.09;3209355;23;20021;-79
2023/04/04 03:23:41;;;;;;;6.57;3.13;;;;;;;1.54;74.43;99204.88;3209087;23;20024;-79
2023/04/04 03:24:57;;;;;;;7.53;3.05;;;;;;;1.42;73.74;99204.59;3209373;23;20074;-79
2023/04/04 03:26:14;;;;;;;11.43;3.35;;;;;;;1.61;72.69;99210.13;3209192;23;20024;-79
2023/04/04 03:27:33;;;;;;;7.82;3.20;;;;;;;1.63;70.98;99208.44;3209228;23;20217;-80
2023/04/04 03:28:49;;;;;;;6.05;3.15;;;;;;;1.68;70.96;99204.28;3209132;23;20456;-78
2023/04/04 03:30:07;;;;;;;6.20;2.92;;;;;;;1.67;70.49;99216.28;3209782;23;20025;-80
2023/04/04 03:31:22;;;;;;;6.25;2.90;;;;;;;1.39;72.12;99207.09;3209825;23;20357;-80
2023/04/04 03:32:38;;;;;;;8.57;3.05;;;;;;;1.44;71.71;99215.81;3208988;23;20016;-80
2023/04/04 03:33:53;;;;;;;8.55;3.15;;;;;;;1.62;70.50;99210.19;3209549;23;20028;-79
2023/04/04 03:35:09;;;;;;;5.78;2.75;;;;;;;1.55;69.42;99210.88;3209988;23;20456;-79
2023/04/04 03:36:25;;;;;;;5.95;2.70;;;;;;;1.52;70.88;99206.50;3208784;23;20017;-79
2023/04/04 03:37:41;;;;;;;6.72;2.72;;;;;;;1.64;70.06;99217.94;3209159;23;20089;-79
2023/04/04 03:38:57;;;;;;;5.68;2.42;;;;;;;1.71;68.19;99208.59;3208983;23;20424;-79
2023/04/04 03:40:13;;;;;;;5.68;2.78;;;;;;;1.87;67.62;99209.78;3208966;23;20028;-79
2023/04/04 03:41:28;;;;;;;4.78;2.60;;;;;;;1.82;68.81;99213.16;3208904;23;20504;-79
2023/04/04 03:42:44;;;;;;;4.53;2.63;;;;;;;1.80;69.05;99209.66;3209040;23;20031;-79
2023/04/04 03:44:00;;;;;;;7.55;3.08;;;;;;;1.73;68.05;99206.91;3209104;23;20456;-79
2023/04/04 03:45:16;;;;;;;5.80;2.80;;;;;;;1.71;69.60;99201.75;3209499;23;20024;-79
2023/04/04 03:46:31;;;;;;;5.38;2.78;;;;;;;1.54;71.32;99207.44;3208984;23;20025;-79
2023/04/04 03:47:47;;;;;;;9.98;3.03;;;;;;;1.33;72.49;99206.97;3208930;23;20487;-79
2023/04/04 03:49:02;;;;;;;6.40;3.08;;;;;;;1.30;72.83;99201.75;3209051;23;20399;-80
2023/04/04 03:50:18;;;;;;;6.45;3.22;;;;;;;1.30;71.90;99201.75;3209324;23;20032;-79
2023/04/04 03:51:33;;;;;;;5.35;2.80;;;;;;;1.34;71.54;99199.28;3209096;23;20024;-79
2023/04/04 03:52:49;;;;;;;6.78;3.15;;;;;;;1.21;70.12;99205.88;3209380;23;20032;-79
2023/04/04 03:54:05;;;;;;;7.13;2.80;;;;;;;1.09;72.18;99200.44;3209365;23;20027;-79
2023/04/04 03:55:20;;;;;;;4.97;2.70;;;;;;;0.88;74.02;99203.38;3208986;23;20032;-82
2023/04/04 03:56:36;;;;;;;8.23;3.00;;;;;;;0.73;75.41;99196.19;3208974;23;20021;-79
2023/04/04 03:57:52;;;;;;;5.32;2.95;;;;;;;0.82;74.79;99205.00;3209795;23;20025;-81
2023/04/04 03:59:07;;;;;;;6.43;3.00;;;;;;;0.88;75.13;99203.38;3208925;23;20035;-82
2023/04/04 04:00:23;;;;;;;6.38;3.50;;;;;;;0.85;73.19;99209.34;3209347;23;20017;-82
2023/04/04 04:01:38;;;;;;;9.23;3.35;;;;;;;0.92;72.39;99200.91;3210006;23;20032;-81
2023/04/04 04:02:54;;;;;;;6.20;3.30;;;;;;;0.91;73.38;99201.75;3209288;23;20031;-81
2023/04/04 04:04:09;;;;;;;6.35;2.85;;;;;;;0.80;73.56;99205.78;3208994;23;20025;-81
2023/04/04 04:05:25;;;;;;;6.38;3.10;;;;;;;0.81;71.83;99207.53;3209084;23;20450;-80
2023/04/04 04:06:41;;;;;;;7.82;3.58;;;;;;;0.57;73.47;99208.69;3208337;23;20032;-81
2023/04/04 04:07:56;;;;;;;5.93;2.88;;;;;;;0.74;71.72;99211.66;3208707;23;20021;-83
2023/04/04 04:09:12;;;;;;;5.80;2.80;;;;;;;0.65;72.28;99209.72;3208965;23;20356;-82
2023/04/04 04:10:27;;;;;;;7.13;2.70;;;;;;;0.57;73.69;99213.84;3209021;23;20021;-82
2023/04/04 04:11:43;;;;;;;10.32;2.90;;;;;;;0.73;69.39;99214.22;3208837;23;20036;-81
2023/04/04 04:13:00;;;;;;;4.88;2.85;;;;;;;0.77;71.35;99211.75;3209119;23;20095;-81
2023/04/04 04:14:15;;;;;;;5.38;2.95;;;;;;;0.68;70.54;99221.84;3208756;23;20028;-81
2023/04/04 04:15:31;;;;;;;5.88;2.50;;;;;;;0.69;70.53;99219.28;3208949;23;20021;-81
2023/04/04 04:16:46;;;;;;;3.88;2.30;;;;;;;0.62;72.25;99216.50;3208866;23;20490;-81
2023/04/04 04:18:02;;;;;;;5.18;2.42;;;;;;;0.37;73.21;99221.94;3209046;23;20099;-82
2023/04/04 04:19:17;;;;;;;7.15;2.63;;;;;;;0.18;73.58;99209.41;3209076;23;20025;-81
2023/04/04 04:20:33;;;;;;;7.00;2.65;;;;;;;0.13;73.45;99215.28;3208883;23;20071;-82
2023/04/04 04:21:48;;;;;;;6.57;2.58;;;;;;;0.21;73.58;99215.53;3208744;23;20021;-81
2023/04/04 04:23:04;;;;;;;5.05;2.40;;;;;;;0.18;73.13;99218.00;3209286;23;20021;-81
2023/04/04 04:24:20;;;;;;;4.70;2.55;;;;;;;0.32;72.64;99215.78;3208781;23;20476;-81
2023/04/04 04:25:35;;;;;;;4.82;2.80;;;;;;;0.41;71.63;99213.44;3208943;23;20478;-81
2023/04/04 04:26:51;;;;;;;5.45;2.72;;;;;;;0.51;72.18;99219.72;3208924;23;20025;-85
2023/04/04 04:28:06;;;;;;;7.20;2.65;;;;;;;0.58;71.81;99218.16;3209125;23;20025;-83
2023/04/04 04:29:22;;;;;;;5.18;2.28;;;;;;;0.53;71.53;99212.00;3209301;23;20020;-82
2023/04/04 04:30:37;;;;;;;9.02;3.17;;;;;;;0.52;70.16;99216.31;3208867;23;20128;-82
2023/04/04 04:31:53;;;;;;;5.30;2.63;;;;;;;0.52;70.32;99221.47;3209642;23;20025;-83
2023/04/04 04:33:09;;;;;;;6.07;2.83;;;;;;;0.61;70.49;99219.94;3210259;23;20044;-83
2023/04/04 04:34:25;;;;;;;5.28;2.40;;;;;;;0.74;69.51;99215.97;3209820;23;20020;-81
2023/04/04 04:35:40;;;;;;;6.20;2.60;;;;;;;0.90;68.53;99223.22;3209943;23;20471;-82
2023/04/04 04:36:56;;;;;;;5.20;2.38;;;;;;;0.53;69.97;99215.47;3209699;23;20031;-81
2023/04/04 04:38:12;;;;;;;7.25;2.90;;;;;;;0.78;69.80;99218.66;3210104;23;20029;-81
2023/04/04 04:39:28;;;;;;;9.48;2.78;;;;;;;0.97;69.07;99214.78;3210682;23;20030;-81
2023/04/04 04:40:44;;;;;;;6.88;2.70;;;;;;;1.05;68.09;99214.09;3209966;23;20025;-81
2023/04/04 04:42:00;;;;;;;5.85;2.97;;;;;;;1.16;67.87;99217.78;3211096;23;20017;-81
2023/04/04 04:43:15;;;;;;;4.90;2.70;;;;;;;0.98;68.43;99216.56;3210009;23;20087;-81
2023/04/04 04:44:31;;;;;;;6.45;2.80;;;;;;;1.13;68.54;99217.72;3209998;23;20173;-83
2023/04/04 04:45:47;;;;;;;8.80;2.72;;;;;;;1.09;68.71;99224.53;3210276;23;20027;-81
2023/04/04 04:47:02;;;;;;;6.38;3.10;;;;;;;1.11;68.09;99216.81;3209989;23;20361;-81
2023/04/04 04:48:18;;;;;;;8.10;2.40;;;;;;;1.02;68.84;99217.47;3210090;23;20079;-81
2023/04/04 04:49:34;;;;;;;7.45;2.75;;;;;;;1.25;68.00;99219.72;3209751;23;20082;-81
2023/04/04 04:50:49;;;;;;;6.70;3.22;;;;;;;1.18;68.28;99213.53;3210031;23;20024;-81
2023/04/04 04:52:05;;;;;;;5.55;2.58;;;;;;;1.20;68.85;99214.44;3210040;23;20351;-81
2023/04/04 04:53:21;;;;;;;7.60;2.33;;;;;;;0.91;69.68;99204.34;3209853;23;20016;-81
2023/04/04 04:54:36;;;;;;;5.25;2.45;;;;;;;1.25;67.94;99215.41;3209795;23;20460;-81
2023/04/04 04:55:52;;;;;;;6.93;2.92;;;;;;;1.32;67.92;99212.97;3210179;23;20073;-81
2023/04/04 04:57:08;;;;;;;6.38;2.75;;;;;;;1.26;68.28;99212.00;3209743;23;20078;-81
2023/04/04 04:58:23;;;;;;;5.82;2.65;;;;;;;1.27;69.13;99215.44;3209725;23;20024;-81
2023/04/04 04:59:40;;;;;;;5.57;2.75;;;;;;;1.33;69.10;99212.13;3210078;23;20465;-82
2023/04/04 05:00:58;;;;;;;6.78;2.65;;;;;;;1.42;68.42;99204.59;3210168;23;20066;-82
2023/04/04 05:02:14;;;;;;;6.18;3.03;;;;;;;1.36;69.69;99213.06;3209779;23;20025;-82
2023/04/04 05:03:30;;;;;;;4.93;2.25;;;;;;;1.44;69.52;99214.94;3210177;23;20028;-82
2023/04/04 05:04:46;;;;;;;4.45;2.53;;;;;;;1.40;68.97;99207.13;3210184;23;20066;-82
2023/04/04 05:06:01;;;;;;;6.97;2.83;;;;;;;1.35;69.44;99210.44;3210032;23;20551;-82
2023/04/04 05:07:17;;;;;;;6.13;3.10;;;;;;;1.42;69.19;99209.75;3210412;23;20296;-83
2023/04/04 05:08:33;;;;;;;6.68;2.60;;;;;;;1.48;69.13;99206.44;3209944;23;20025;-82
2023/04/04 05:09:51;;;;;;;5.75;2.97;;;;;;;1.49;68.95;99210.75;3209957;23;20024;-82
2023/04/04 05:11:07;;;;;;;4.85;2.80;;;;;;;1.52;69.58;99208.25;3209945;23;20154;-82
2023/04/04 05:12:23;;;;;;;6.07;2.95;;;;;;;1.53;69.29;99208.25;3209595;23;20082;-82
2023/04/04 05:13:39;;;;;;;6.15;2.70;;;;;;;1.41;70.67;99202.88;3209758;23;20146;-82
2023/04/04 05:14:54;;;;;;;6.05;2.70;;;;;;;1.24;70.82;99210.22;3209398;23;20104;-82
2023/04/04 05:16:10;;;;;;;6.13;2.97;;;;;;;1.36;70.61;99215.66;3209773;23;20031;-82
2023/04/04 05:17:25;;;;;;;6.35;2.78;;;;;;;1.59;69.52;99209.25;3209739;23;20020;-82
2023/04/04 05:18:41;;;;;;;5.28;2.92;;;;;;;1.62;68.93;99215.34;3209687;23;20036;-82
2023/04/04 05:19:56;;;;;;;4.65;2.75;;;;;;;1.63;69.93;99216.19;3209756;23;20028;-82
2023/04/04 05:21:12;;;;;;;5.53;3.00;;;;;;;1.64;70.27;99216.25;3209708;23;20029;-82
2023/04/04 05:22:28;;;;;;;8.63;2.95;;;;;;;1.39;70.25;99225.16;3209703;23;20025;-82
2023/04/04 05:23:44;;;;;;;8.57;2.80;;;;;;;1.47;69.96;99212.44;3209553;23;20028;-82
2023/04/04 05:24:59;;;;;;;6.60;2.70;;;;;;;1.34;70.18;99217.34;3209447;23;20357;-82
2023/04/04 05:26:15;;;;;;;5.22;2.50;;;;;;;1.60;69.89;99217.00;3209734;23;20029;-82
2023/04/04 05:27:30;;;;;;;7.47;2.80;;;;;;;1.69;69.42;99222.34;3209564;23;20059;-82
2023/04/04 05:28:46;;;;;;;4.82;2.47;;;;;;;1.76;68.44;99218.19;3209599;23;20488;-82
2023/04/04 05:30:02;;;;;;;5.55;2.80;;;;;;;1.85;68.01;99219.22;3209015;23;20024;-82
2023/04/04 05:31:17;;;;;;;5.93;2.75;;;;;;;1.85;68.40;99219.22;3193070;23;20025;-82
2023/04/04 05:32:33;;;;;;;8.13;3.13;;;;;;;1.83;68.44;99220.06;3199904;23;20025;-82
2023/04/04 05:33:49;;;;;;;5.82;3.00;;;;;;;1.88;67.69;99220.13;3209589;23;20017;-83
2023/04/04 05:35:05;;;;;;;5.50;2.50;;;;;;;1.88;66.77;99216.69;3208795;23;20353;-82
2023/04/04 05:36:21;;;;;;;6.60;3.00;;;;;;;1.86;67.09;99220.97;3209604;23;20021;-83
2023/04/04 05:37:39;;;;;;;6.55;3.10;;;;;;;1.92;67.91;99211.63;3209274;23;20028;-82
2023/04/04 05:38:55;;;;;;;4.55;2.50;;;;;;;1.85;68.74;99221.81;3209548;23;20123;-82
2023/04/04 05:40:10;;;;;;;6.80;2.90;;;;;;;1.86;69.15;99223.53;3209679;23;20482;-83
2023/04/04 05:41:26;;;;;;;6.55;2.88;;;;;;;1.83;68.69;99220.06;3209693;23;20043;-83
2023/04/04 05:42:42;;;;;;;6.70;2.65;;;;;;;1.85;69.01;99221.81;3192723;23;20032;-82
2023/04/04 05:43:58;;;;;;;7.45;2.65;;;;;;;1.79;69.97;99227.72;3199680;23;20027;-82
2023/04/04 05:45:14;;;;;;;7.68;3.00;;;;;;;1.45;69.40;99227.88;3209488;23;20063;-82
2023/04/04 05:46:30;;;;;;;7.68;2.92;;;;;;;1.32;70.40;99212.97;3209660;23;20052;-83
2023/04/04 05:47:45;;;;;;;7.75;3.60;;;;;;;1.25;71.42;99224.88;3209633;23;20024;-82
2023/04/04 05:49:01;;;;;;;5.05;2.38;;;;;;;1.30;71.50;99225.81;3209701;23;20020;-84
2023/04/04 05:50:16;;;;;;;10.15;3.45;;;;;;;1.64;69.80;99223.09;3209722;23;20020;-84
2023/04/04 05:51:32;;;;;;;6.65;3.03;;;;;;;1.83;68.83;99222.66;3209634;23;20086;-84
2023/04/04 05:52:48;;;;;;;4.30;2.80;;;;;;;1.85;68.91;99216.66;3209515;23;20020;-83
2023/04/04 05:54:06;;;;;;;8.20;3.30;;;;;;;1.82;69.70;99225.19;3209571;23;20021;-84
2023/04/04 05:55:22;;;;;;;7.43;2.58;;;;;;;1.19;72.33;99223.00;3209191;23;20031;-84
2023/04/04 05:56:37;;;;;;;6.45;3.40;;;;;;;1.46;71.88;99219.31;3209136;23;20357;-84
2023/04/04 05:57:53;;;;;;;8.88;3.33;;;;;;;1.30;73.27;99223.25;3209520;23;20028;-84
2023/04/04 05:59:08;;;;;;;7.95;3.40;;;;;;;1.33;73.67;99222.44;3209587;23;20071;-84
2023/04/04 06:00:24;;;;;;;5.10;2.90;;;;;;;1.63;71.51;99219.66;3209378;23;20024;-84
2023/04/04 06:01:39;;;;;;;8.38;2.90;;;;;;;1.66;71.95;99221.41;3210526;23;20028;-84
2023/04/04 06:02:57;;;;;;;9.30;3.30;;;;;;;1.86;69.53;99219.25;3209576;23;20043;-84